sensor_id;sensor_type;location;lat;lon;timestamp;temperature;humidity
1307;DHT22;646;48.696;9.114;2022-12-10T00:01:08;2.20;99.90
1307;DHT22;646;48.696;9.114;2022-12-10T00:03:34;2.20;99.90
1307;DHT22;646;48.696;9.114;2022-12-10T00:06:04;2.10;99.90
1307;DHT22;646;48.696;9.114;2022-12-10T00:08:30;2.10;99.90
1307;DHT22;646;48.696;9.114;2022-12-10T00:10:56;2.00;99.90
1307;DHT22;646;48.696;9.114;2022-12-10T00:13:22;2.00;99.90
1307;DHT22;646;48.696;9.114;2022-12-10T00:15:48;1.60;99.90
1307;DHT22;646;48.696;9.114;2022-12-10T00:18:13;2.10;99.90
1307;DHT22;646;48.696;9.114;2022-12-10T00:20:39;2.20;99.90
1307;DHT22;646;48.696;9.114;2022-12-10T00:23:05;2.00;99.90
1307;DHT22;646;48.696;9.114;2022-12-10T00:25:32;2.30;99.90
1307;DHT22;646;48.696;9.114;2022-12-10T00:27:57;2.30;99.90
1307;DHT22;646;48.696;9.114;2022-12-10T00:30:23;2.30;99.90
1307;DHT22;646;48.696;9.114;2022-12-10T00:32:49;2.10;99.90
1307;DHT22;646;48.696;9.114;2022-12-10T00:35:14;2.20;99.90
1307;DHT22;646;48.696;9.114;2022-12-10T00:37:40;2.30;99.90
1307;DHT22;646;48.696;9.114;2022-12-10T00:40:06;2.20;99.90
1307;DHT22;646;48.696;9.114;2022-12-10T00:42:32;2.20;99.90
1307;DHT22;646;48.696;9.114;2022-12-10T00:44:57;2.20;99.90
1307;DHT22;646;48.696;9.114;2022-12-10T00:47:23;1.70;99.90
1307;DHT22;646;48.696;9.114;2022-12-10T00:49:48;2.30;99.90
1307;DHT22;646;48.696;9.114;2022-12-10T00:52:14;2.20;99.90
1307;DHT22;646;48.696;9.114;2022-12-10T00:54:39;2.20;99.90
1307;DHT22;646;48.696;9.114;2022-12-10T00:57:05;2.50;99.90
1307;DHT22;646;48.696;9.114;2022-12-10T00:59:30;2.20;99.90
1307;DHT22;646;48.696;9.114;2022-12-10T01:01:56;2.30;99.90
1307;DHT22;646;48.696;9.114;2022-12-10T01:04:22;2.40;99.90
1307;DHT22;646;48.696;9.114;2022-12-10T01:06:52;2.30;99.90
1307;DHT22;646;48.696;9.114;2022-12-10T01:09:21;2.30;99.90
1307;DHT22;646;48.696;9.114;2022-12-10T01:11:48;2.30;99.90
1307;DHT22;646;48.696;9.114;2022-12-10T01:14:17;1.70;99.90
1307;DHT22;646;48.696;9.114;2022-12-10T01:16:44;2.10;99.90
1307;DHT22;646;48.696;9.114;2022-12-10T01:19:09;2.10;99.90
1307;DHT22;646;48.696;9.114;2022-12-10T01:21:35;2.20;99.90
1307;DHT22;646;48.696;9.114;2022-12-10T01:24:01;2.40;99.90
1307;DHT22;646;48.696;9.114;2022-12-10T01:26:29;2.30;99.90
1307;DHT22;646;48.696;9.114;2022-12-10T01:28:55;1.70;99.90
1307;DHT22;646;48.696;9.114;2022-12-10T01:31:27;2.20;99.90
1307;DHT22;646;48.696;9.114;2022-12-10T01:33:53;2.40;99.90
1307;DHT22;646;48.696;9.114;2022-12-10T01:36:25;2.30;99.90
1307;DHT22;646;48.696;9.114;2022-12-10T01:38:51;2.40;99.90
1307;DHT22;646;48.696;9.114;2022-12-10T01:41:21;2.30;99.90
1307;DHT22;646;48.696;9.114;2022-12-10T01:46:22;2.30;99.90
1307;DHT22;646;48.696;9.114;2022-12-10T01:48:49;2.50;99.90
1307;DHT22;646;48.696;9.114;2022-12-10T01:51:15;2.20;99.90
1307;DHT22;646;48.696;9.114;2022-12-10T01:53:42;1.90;99.90
1307;DHT22;646;48.696;9.114;2022-12-10T01:56:11;2.50;99.90
1307;DHT22;646;48.696;9.114;2022-12-10T01:58:37;2.50;99.90
1307;DHT22;646;48.696;9.114;2022-12-10T02:06:32;2.40;99.90
1307;DHT22;646;48.696;9.114;2022-12-10T02:09:16;2.30;99.90
1307;DHT22;646;48.696;9.114;2022-12-10T02:11:49;2.30;99.90
1307;DHT22;646;48.696;9.114;2022-12-10T02:14:28;2.30;99.90
1307;DHT22;646;48.696;9.114;2022-12-10T02:17:09;2.30;99.90
1307;DHT22;646;48.696;9.114;2022-12-10T02:22:39;2.20;99.90
1307;DHT22;646;48.696;9.114;2022-12-10T02:25:07;2.30;99.90
1307;DHT22;646;48.696;9.114;2022-12-10T02:27:44;2.40;99.90
1307;DHT22;646;48.696;9.114;2022-12-10T02:30:12;2.00;99.90
1307;DHT22;646;48.696;9.114;2022-12-10T02:32:40;2.30;99.90
1307;DHT22;646;48.696;9.114;2022-12-10T02:35:19;2.40;99.90
1307;DHT22;646;48.696;9.114;2022-12-10T02:37:49;2.20;99.90
1307;DHT22;646;48.696;9.114;2022-12-10T02:40:19;2.20;99.90
1307;DHT22;646;48.696;9.114;2022-12-10T02:42:48;2.00;99.90
1307;DHT22;646;48.696;9.114;2022-12-10T02:45:15;2.10;99.90
1307;DHT22;646;48.696;9.114;2022-12-10T02:47:41;2.10;99.90
1307;DHT22;646;48.696;9.114;2022-12-10T02:50:09;2.10;99.90
1307;DHT22;646;48.696;9.114;2022-12-10T02:52:35;2.20;99.90
1307;DHT22;646;48.696;9.114;2022-12-10T02:55:01;2.10;99.90
1307;DHT22;646;48.696;9.114;2022-12-10T03:00:13;2.30;99.90
1307;DHT22;646;48.696;9.114;2022-12-10T03:06:05;1.80;99.90
1307;DHT22;646;48.696;9.114;2022-12-10T03:08:39;2.00;99.90
1307;DHT22;646;48.696;9.114;2022-12-10T03:11:15;1.90;99.90
1307;DHT22;646;48.696;9.114;2022-12-10T03:16:16;2.00;99.90
1307;DHT22;646;48.696;9.114;2022-12-10T03:18:43;2.10;99.90
1307;DHT22;646;48.696;9.114;2022-12-10T03:21:10;1.90;99.90
1307;DHT22;646;48.696;9.114;2022-12-10T03:23:39;2.10;99.90
1307;DHT22;646;48.696;9.114;2022-12-10T03:26:07;2.20;99.90
1307;DHT22;646;48.696;9.114;2022-12-10T03:28:38;2.20;99.90
1307;DHT22;646;48.696;9.114;2022-12-10T03:31:07;1.90;99.90
1307;DHT22;646;48.696;9.114;2022-12-10T03:33:34;2.00;99.90
1307;DHT22;646;48.696;9.114;2022-12-10T03:36:00;1.90;99.90
1307;DHT22;646;48.696;9.114;2022-12-10T03:38:25;1.40;99.90
1307;DHT22;646;48.696;9.114;2022-12-10T03:40:51;2.00;99.90
1307;DHT22;646;48.696;9.114;2022-12-10T03:43:16;1.90;99.90
1307;DHT22;646;48.696;9.114;2022-12-10T03:45:42;2.10;99.90
1307;DHT22;646;48.696;9.114;2022-12-10T03:48:07;1.60;99.90
1307;DHT22;646;48.696;9.114;2022-12-10T03:50:33;2.00;99.90
1307;DHT22;646;48.696;9.114;2022-12-10T03:52:58;2.00;99.90
1307;DHT22;646;48.696;9.114;2022-12-10T03:55:24;2.00;99.90
1307;DHT22;646;48.696;9.114;2022-12-10T03:57:49;2.20;99.90
1307;DHT22;646;48.696;9.114;2022-12-10T04:00:15;2.40;99.90
1307;DHT22;646;48.696;9.114;2022-12-10T04:02:41;2.10;99.90
1307;DHT22;646;48.696;9.114;2022-12-10T04:05:07;2.30;99.90
1307;DHT22;646;48.696;9.114;2022-12-10T04:07:33;2.30;99.90
1307;DHT22;646;48.696;9.114;2022-12-10T04:09:59;2.30;99.90
1307;DHT22;646;48.696;9.114;2022-12-10T04:12:24;2.30;99.90
1307;DHT22;646;48.696;9.114;2022-12-10T04:14:50;2.10;99.90
1307;DHT22;646;48.696;9.114;2022-12-10T04:17:34;2.50;99.90
1307;DHT22;646;48.696;9.114;2022-12-10T04:20:00;2.20;99.90
1307;DHT22;646;48.696;9.114;2022-12-10T04:22:25;2.10;99.90
1307;DHT22;646;48.696;9.114;2022-12-10T04:25:20;2.30;99.90
1307;DHT22;646;48.696;9.114;2022-12-10T04:28:04;2.30;99.90
1307;DHT22;646;48.696;9.114;2022-12-10T04:30:30;2.00;99.90
1307;DHT22;646;48.696;9.114;2022-12-10T04:32:55;2.10;99.90
1307;DHT22;646;48.696;9.114;2022-12-10T04:35:21;2.20;99.90
1307;DHT22;646;48.696;9.114;2022-12-10T04:37:46;1.60;99.90
1307;DHT22;646;48.696;9.114;2022-12-10T04:40:12;2.00;99.90
1307;DHT22;646;48.696;9.114;2022-12-10T04:42:37;1.60;99.90
1307;DHT22;646;48.696;9.114;2022-12-10T04:45:03;2.10;99.90
1307;DHT22;646;48.696;9.114;2022-12-10T04:47:29;1.70;99.90
1307;DHT22;646;48.696;9.114;2022-12-10T04:49:54;2.20;99.90
1307;DHT22;646;48.696;9.114;2022-12-10T04:52:20;2.20;99.90
1307;DHT22;646;48.696;9.114;2022-12-10T04:54:45;2.20;99.90
1307;DHT22;646;48.696;9.114;2022-12-10T04:57:11;2.30;99.90
1307;DHT22;646;48.696;9.114;2022-12-10T04:59:36;1.70;99.90
1307;DHT22;646;48.696;9.114;2022-12-10T05:02:03;2.30;99.90
1307;DHT22;646;48.696;9.114;2022-12-10T05:04:28;2.10;99.90
1307;DHT22;646;48.696;9.114;2022-12-10T05:06:54;2.20;99.90
1307;DHT22;646;48.696;9.114;2022-12-10T05:09:19;2.20;99.90
1307;DHT22;646;48.696;9.114;2022-12-10T05:11:45;2.10;99.90
1307;DHT22;646;48.696;9.114;2022-12-10T05:14:12;2.40;99.90
1307;DHT22;646;48.696;9.114;2022-12-10T05:16:38;2.30;99.90
1307;DHT22;646;48.696;9.114;2022-12-10T05:19:04;2.10;99.90
1307;DHT22;646;48.696;9.114;2022-12-10T05:21:29;2.20;99.90
1307;DHT22;646;48.696;9.114;2022-12-10T05:24:14;1.50;99.90
1307;DHT22;646;48.696;9.114;2022-12-10T05:26:39;2.10;99.90
1307;DHT22;646;48.696;9.114;2022-12-10T05:29:05;2.10;99.90
1307;DHT22;646;48.696;9.114;2022-12-10T05:31:31;2.30;99.90
1307;DHT22;646;48.696;9.114;2022-12-10T05:33:57;2.10;99.90
1307;DHT22;646;48.696;9.114;2022-12-10T05:36:29;2.10;99.90
1307;DHT22;646;48.696;9.114;2022-12-10T05:38:56;1.70;99.90
1307;DHT22;646;48.696;9.114;2022-12-10T05:41:25;1.90;99.90
1307;DHT22;646;48.696;9.114;2022-12-10T05:43:52;1.90;99.90
1307;DHT22;646;48.696;9.114;2022-12-10T05:46:21;2.00;99.90
1307;DHT22;646;48.696;9.114;2022-12-10T05:48:48;1.90;99.90
1307;DHT22;646;48.696;9.114;2022-12-10T05:51:16;1.90;99.90
1307;DHT22;646;48.696;9.114;2022-12-10T05:53:42;1.90;99.90
1307;DHT22;646;48.696;9.114;2022-12-10T05:56:10;1.90;99.90
1307;DHT22;646;48.696;9.114;2022-12-10T05:58:38;2.00;99.90
1307;DHT22;646;48.696;9.114;2022-12-10T06:01:14;2.00;99.90
1307;DHT22;646;48.696;9.114;2022-12-10T06:03:40;1.90;99.90
1307;DHT22;646;48.696;9.114;2022-12-10T06:06:06;1.70;99.90
1307;DHT22;646;48.696;9.114;2022-12-10T06:08:32;1.90;99.90
1307;DHT22;646;48.696;9.114;2022-12-10T06:11:01;1.80;99.90
1307;DHT22;646;48.696;9.114;2022-12-10T06:13:27;1.60;99.90
1307;DHT22;646;48.696;9.114;2022-12-10T06:15:53;1.60;99.90
1307;DHT22;646;48.696;9.114;2022-12-10T06:18:18;1.60;99.90
1307;DHT22;646;48.696;9.114;2022-12-10T06:20:44;1.50;99.90
1307;DHT22;646;48.696;9.114;2022-12-10T06:23:09;1.70;99.90
1307;DHT22;646;48.696;9.114;2022-12-10T06:25:37;1.50;99.90
1307;DHT22;646;48.696;9.114;2022-12-10T06:28:04;1.60;99.90
1307;DHT22;646;48.696;9.114;2022-12-10T06:30:29;1.00;99.90
1307;DHT22;646;48.696;9.114;2022-12-10T06:32:55;1.50;99.90
1307;DHT22;646;48.696;9.114;2022-12-10T06:35:20;1.50;99.90
1307;DHT22;646;48.696;9.114;2022-12-10T06:37:46;1.60;99.90
1307;DHT22;646;48.696;9.114;2022-12-10T06:40:11;1.60;99.90
1307;DHT22;646;48.696;9.114;2022-12-10T06:42:37;1.40;99.90
1307;DHT22;646;48.696;9.114;2022-12-10T06:45:03;1.50;99.90
1307;DHT22;646;48.696;9.114;2022-12-10T06:47:28;1.40;99.90
1307;DHT22;646;48.696;9.114;2022-12-10T06:49:54;1.50;99.90
1307;DHT22;646;48.696;9.114;2022-12-10T06:52:19;1.70;99.90
1307;DHT22;646;48.696;9.114;2022-12-10T06:54:45;1.40;99.90
1307;DHT22;646;48.696;9.114;2022-12-10T06:57:10;0.80;99.90
1307;DHT22;646;48.696;9.114;2022-12-10T06:59:36;1.70;99.90
1307;DHT22;646;48.696;9.114;2022-12-10T07:02:01;1.50;99.90
1307;DHT22;646;48.696;9.114;2022-12-10T07:04:27;1.50;99.90
1307;DHT22;646;48.696;9.114;2022-12-10T07:06:53;1.60;99.90
1307;DHT22;646;48.696;9.114;2022-12-10T07:09:18;1.80;99.90
1307;DHT22;646;48.696;9.114;2022-12-10T07:11:44;1.80;99.90
1307;DHT22;646;48.696;9.114;2022-12-10T07:14:14;1.40;99.90
1307;DHT22;646;48.696;9.114;2022-12-10T07:16:40;1.50;99.90
1307;DHT22;646;48.696;9.114;2022-12-10T07:19:05;1.60;99.90
1307;DHT22;646;48.696;9.114;2022-12-10T07:21:34;1.50;99.90
1307;DHT22;646;48.696;9.114;2022-12-10T07:24:09;1.60;99.90
1307;DHT22;646;48.696;9.114;2022-12-10T07:26:37;1.50;99.90
1307;DHT22;646;48.696;9.114;2022-12-10T07:29:05;1.50;99.90
1307;DHT22;646;48.696;9.114;2022-12-10T07:31:32;1.70;99.90
1307;DHT22;646;48.696;9.114;2022-12-10T07:33:58;1.60;99.90
1307;DHT22;646;48.696;9.114;2022-12-10T07:36:24;1.60;99.90
1307;DHT22;646;48.696;9.114;2022-12-10T07:38:51;1.70;99.90
1307;DHT22;646;48.696;9.114;2022-12-10T07:41:17;1.70;99.90
1307;DHT22;646;48.696;9.114;2022-12-10T07:43:44;1.80;99.90
1307;DHT22;646;48.696;9.114;2022-12-10T07:48:38;1.70;99.90
1307;DHT22;646;48.696;9.114;2022-12-10T07:51:05;1.90;99.90
1307;DHT22;646;48.696;9.114;2022-12-10T07:53:31;1.70;99.90
1307;DHT22;646;48.696;9.114;2022-12-10T07:55:57;1.80;99.90
1307;DHT22;646;48.696;9.114;2022-12-10T07:58:23;2.00;99.90
1307;DHT22;646;48.696;9.114;2022-12-10T08:00:48;1.90;99.90
1307;DHT22;646;48.696;9.114;2022-12-10T08:03:14;2.00;99.90
1307;DHT22;646;48.696;9.114;2022-12-10T08:05:40;2.10;99.90
1307;DHT22;646;48.696;9.114;2022-12-10T08:08:05;2.00;99.90
1307;DHT22;646;48.696;9.114;2022-12-10T08:10:34;2.10;99.90
1307;DHT22;646;48.696;9.114;2022-12-10T08:12:59;2.10;99.90
1307;DHT22;646;48.696;9.114;2022-12-10T08:15:25;2.10;99.90
1307;DHT22;646;48.696;9.114;2022-12-10T08:17:53;2.20;99.90
1307;DHT22;646;48.696;9.114;2022-12-10T08:20:19;2.20;99.90
1307;DHT22;646;48.696;9.114;2022-12-10T08:22:45;2.50;99.90
1307;DHT22;646;48.696;9.114;2022-12-10T08:25:10;2.30;99.90
1307;DHT22;646;48.696;9.114;2022-12-10T08:27:36;2.00;99.90
1307;DHT22;646;48.696;9.114;2022-12-10T08:30:02;2.30;99.90
1307;DHT22;646;48.696;9.114;2022-12-10T08:32:27;2.00;99.90
1307;DHT22;646;48.696;9.114;2022-12-10T08:34:53;2.50;99.90
1307;DHT22;646;48.696;9.114;2022-12-10T08:37:18;2.60;99.90
1307;DHT22;646;48.696;9.114;2022-12-10T08:39:44;2.30;99.90
1307;DHT22;646;48.696;9.114;2022-12-10T08:42:09;2.60;99.90
1307;DHT22;646;48.696;9.114;2022-12-10T08:44:35;2.70;99.90
1307;DHT22;646;48.696;9.114;2022-12-10T08:47:00;3.00;99.90
1307;DHT22;646;48.696;9.114;2022-12-10T08:49:26;2.80;99.90
1307;DHT22;646;48.696;9.114;2022-12-10T08:51:51;2.70;99.90
1307;DHT22;646;48.696;9.114;2022-12-10T08:54:17;3.10;99.90
1307;DHT22;646;48.696;9.114;2022-12-10T08:56:42;3.00;99.90
1307;DHT22;646;48.696;9.114;2022-12-10T08:59:08;3.30;99.90
1307;DHT22;646;48.696;9.114;2022-12-10T09:01:33;3.00;99.90
1307;DHT22;646;48.696;9.114;2022-12-10T09:03:59;3.10;99.90
1307;DHT22;646;48.696;9.114;2022-12-10T09:06:26;3.30;99.90
1307;DHT22;646;48.696;9.114;2022-12-10T09:08:52;3.40;99.90
1307;DHT22;646;48.696;9.114;2022-12-10T09:11:21;3.40;99.90
1307;DHT22;646;48.696;9.114;2022-12-10T09:13:47;3.10;99.90
1307;DHT22;646;48.696;9.114;2022-12-10T09:16:13;3.40;99.90
1307;DHT22;646;48.696;9.114;2022-12-10T09:18:39;3.00;99.90
1307;DHT22;646;48.696;9.114;2022-12-10T09:21:14;3.00;99.90
1307;DHT22;646;48.696;9.114;2022-12-10T09:23:40;3.10;99.90
1307;DHT22;646;48.696;9.114;2022-12-10T09:26:08;3.00;99.90
1307;DHT22;646;48.696;9.114;2022-12-10T09:28:34;3.00;99.90
1307;DHT22;646;48.696;9.114;2022-12-10T09:31:00;3.00;99.90
1307;DHT22;646;48.696;9.114;2022-12-10T09:33:27;3.00;99.90
1307;DHT22;646;48.696;9.114;2022-12-10T09:35:53;2.50;99.90
1307;DHT22;646;48.696;9.114;2022-12-10T09:38:19;3.40;99.90
1307;DHT22;646;48.696;9.114;2022-12-10T09:41:00;3.30;99.90
1307;DHT22;646;48.696;9.114;2022-12-10T09:51:39;3.50;99.90
1307;DHT22;646;48.696;9.114;2022-12-10T09:54:17;3.10;99.90
1307;DHT22;646;48.696;9.114;2022-12-10T09:56:44;3.10;99.90
1307;DHT22;646;48.696;9.114;2022-12-10T09:59:23;3.50;99.90
1307;DHT22;646;48.696;9.114;2022-12-10T10:02:00;3.10;99.90
1307;DHT22;646;48.696;9.114;2022-12-10T10:04:26;3.20;99.90
1307;DHT22;646;48.696;9.114;2022-12-10T10:06:51;3.00;99.90
1307;DHT22;646;48.696;9.114;2022-12-10T10:09:17;3.20;99.90
1307;DHT22;646;48.696;9.114;2022-12-10T10:11:44;3.30;99.90
1307;DHT22;646;48.696;9.114;2022-12-10T10:14:13;3.50;99.90
1307;DHT22;646;48.696;9.114;2022-12-10T10:16:56;3.30;99.90
1307;DHT22;646;48.696;9.114;2022-12-10T10:19:35;3.60;99.90
1307;DHT22;646;48.696;9.114;2022-12-10T10:22:03;3.30;99.90
1307;DHT22;646;48.696;9.114;2022-12-10T10:24:38;3.00;99.90
1307;DHT22;646;48.696;9.114;2022-12-10T10:27:20;3.50;99.90
1307;DHT22;646;48.696;9.114;2022-12-10T10:29:49;3.50;99.90
1307;DHT22;646;48.696;9.114;2022-12-10T10:32:27;3.60;99.90
1307;DHT22;646;48.696;9.114;2022-12-10T10:34:55;3.70;99.90
1307;DHT22;646;48.696;9.114;2022-12-10T10:37:23;3.30;99.90
1307;DHT22;646;48.696;9.114;2022-12-10T10:39:51;3.70;99.90
1307;DHT22;646;48.696;9.114;2022-12-10T10:42:36;3.30;99.90
1307;DHT22;646;48.696;9.114;2022-12-10T10:45:06;3.90;99.90
1307;DHT22;646;48.696;9.114;2022-12-10T10:48:08;4.10;99.90
1307;DHT22;646;48.696;9.114;2022-12-10T10:50:39;4.20;99.90
1307;DHT22;646;48.696;9.114;2022-12-10T10:55:49;4.20;99.90
1307;DHT22;646;48.696;9.114;2022-12-10T10:58:19;4.30;99.90
1307;DHT22;646;48.696;9.114;2022-12-10T11:01:03;4.10;99.90
1307;DHT22;646;48.696;9.114;2022-12-10T11:03:30;4.40;99.90
1307;DHT22;646;48.696;9.114;2022-12-10T11:05:59;4.10;99.90
1307;DHT22;646;48.696;9.114;2022-12-10T11:08:29;3.60;99.90
1307;DHT22;646;48.696;9.114;2022-12-10T11:11:12;4.20;99.90
1307;DHT22;646;48.696;9.114;2022-12-10T11:13:42;3.70;99.90
1307;DHT22;646;48.696;9.114;2022-12-10T11:16:21;3.90;99.90
1307;DHT22;646;48.696;9.114;2022-12-10T11:18:57;4.10;99.90
1307;DHT22;646;48.696;9.114;2022-12-10T11:21:31;4.20;99.90
1307;DHT22;646;48.696;9.114;2022-12-10T11:23:58;4.40;99.90
1307;DHT22;646;48.696;9.114;2022-12-10T11:38:06;4.30;99.90
1307;DHT22;646;48.696;9.114;2022-12-10T11:40:54;4.20;99.90
1307;DHT22;646;48.696;9.114;2022-12-10T11:51:40;4.50;99.90
1307;DHT22;646;48.696;9.114;2022-12-10T12:02:38;4.60;99.90
1307;DHT22;646;48.696;9.114;2022-12-10T12:05:16;4.60;99.90
1307;DHT22;646;48.696;9.114;2022-12-10T12:07:48;4.50;99.90
1307;DHT22;646;48.696;9.114;2022-12-10T12:13:05;4.70;99.90
1307;DHT22;646;48.696;9.114;2022-12-10T12:15:58;4.70;99.90
1307;DHT22;646;48.696;9.114;2022-12-10T12:21:45;4.80;99.90
1307;DHT22;646;48.696;9.114;2022-12-10T12:24:25;4.60;99.30
1307;DHT22;646;48.696;9.114;2022-12-10T12:27:00;4.50;99.80
1307;DHT22;646;48.696;9.114;2022-12-10T12:29:31;4.10;98.70
1307;DHT22;646;48.696;9.114;2022-12-10T12:32:25;4.50;99.00
1307;DHT22;646;48.696;9.114;2022-12-10T12:35:02;4.60;99.30
1307;DHT22;646;48.696;9.114;2022-12-10T12:37:37;4.80;98.00
1307;DHT22;646;48.696;9.114;2022-12-10T12:50:55;4.40;98.40
1307;DHT22;646;48.696;9.114;2022-12-10T12:53:23;4.50;98.00
1307;DHT22;646;48.696;9.114;2022-12-10T13:01:41;4.50;99.10
1307;DHT22;646;48.696;9.114;2022-12-10T13:04:09;4.40;98.00
1307;DHT22;646;48.696;9.114;2022-12-10T13:06:38;3.80;98.00
1307;DHT22;646;48.696;9.114;2022-12-10T13:11:43;4.20;97.60
1307;DHT22;646;48.696;9.114;2022-12-10T13:16:46;4.30;95.10
1307;DHT22;646;48.696;9.114;2022-12-10T13:19:31;4.10;95.10
1307;DHT22;646;48.696;9.114;2022-12-10T13:22:39;4.20;95.50
1307;DHT22;646;48.696;9.114;2022-12-10T13:25:09;4.10;95.60
1307;DHT22;646;48.696;9.114;2022-12-10T13:27:35;4.20;95.90
1307;DHT22;646;48.696;9.114;2022-12-10T13:30:30;3.80;95.90
1307;DHT22;646;48.696;9.114;2022-12-10T13:33:14;4.00;97.10
1307;DHT22;646;48.696;9.114;2022-12-10T13:35:59;3.90;96.80
1307;DHT22;646;48.696;9.114;2022-12-10T13:38:26;3.80;97.10
1307;DHT22;646;48.696;9.114;2022-12-10T13:41:06;3.80;97.50
1307;DHT22;646;48.696;9.114;2022-12-10T13:43:57;3.80;96.30
1307;DHT22;646;48.696;9.114;2022-12-10T13:49:55;3.70;97.30
1307;DHT22;646;48.696;9.114;2022-12-10T13:55:20;3.40;98.70
1307;DHT22;646;48.696;9.114;2022-12-10T13:57:59;3.60;99.40
1307;DHT22;646;48.696;9.114;2022-12-10T14:00:38;3.50;99.60
1307;DHT22;646;48.696;9.114;2022-12-10T14:06:11;3.40;99.40
1307;DHT22;646;48.696;9.114;2022-12-10T14:08:39;3.50;99.80
1307;DHT22;646;48.696;9.114;2022-12-10T14:11:21;3.50;99.70
1307;DHT22;646;48.696;9.114;2022-12-10T14:13:53;2.90;99.10
1307;DHT22;646;48.696;9.114;2022-12-10T14:16:21;2.70;99.20
1307;DHT22;646;48.696;9.114;2022-12-10T14:18:56;3.10;99.60
1307;DHT22;646;48.696;9.114;2022-12-10T14:21:22;3.20;99.90
1307;DHT22;646;48.696;9.114;2022-12-10T14:23:50;2.70;99.90
1307;DHT22;646;48.696;9.114;2022-12-10T14:26:22;2.70;99.90
1307;DHT22;646;48.696;9.114;2022-12-10T14:28:56;2.80;99.90
1307;DHT22;646;48.696;9.114;2022-12-10T14:31:34;2.80;99.90
1307;DHT22;646;48.696;9.114;2022-12-10T14:34:05;2.30;99.90
1307;DHT22;646;48.696;9.114;2022-12-10T14:36:38;2.10;99.90
1307;DHT22;646;48.696;9.114;2022-12-10T14:39:13;2.40;99.90
1307;DHT22;646;48.696;9.114;2022-12-10T14:41:39;2.30;99.90
1307;DHT22;646;48.696;9.114;2022-12-10T14:44:05;2.30;99.90
1307;DHT22;646;48.696;9.114;2022-12-10T14:46:31;2.50;99.90
1307;DHT22;646;48.696;9.114;2022-12-10T14:48:57;2.20;99.90
1307;DHT22;646;48.696;9.114;2022-12-10T14:51:25;2.40;99.90
1307;DHT22;646;48.696;9.114;2022-12-10T14:53:53;2.30;99.90
1307;DHT22;646;48.696;9.114;2022-12-10T14:56:26;2.40;99.90
1307;DHT22;646;48.696;9.114;2022-12-10T14:59:04;2.30;99.90
1307;DHT22;646;48.696;9.114;2022-12-10T15:01:37;2.40;99.90
1307;DHT22;646;48.696;9.114;2022-12-10T15:04:05;2.30;99.90
1307;DHT22;646;48.696;9.114;2022-12-10T15:06:38;2.00;99.90
1307;DHT22;646;48.696;9.114;2022-12-10T15:09:05;2.30;99.90
1307;DHT22;646;48.696;9.114;2022-12-10T15:11:31;2.00;99.90
1307;DHT22;646;48.696;9.114;2022-12-10T15:13:59;1.90;99.90
1307;DHT22;646;48.696;9.114;2022-12-10T15:16:45;2.20;99.90
1307;DHT22;646;48.696;9.114;2022-12-10T15:19:37;1.90;99.90
1307;DHT22;646;48.696;9.114;2022-12-10T15:24:42;1.70;99.90
1307;DHT22;646;48.696;9.114;2022-12-10T15:27:22;2.10;99.90
1307;DHT22;646;48.696;9.114;2022-12-10T15:29:49;1.70;99.90
1307;DHT22;646;48.696;9.114;2022-12-10T15:32:26;1.10;99.90
1307;DHT22;646;48.696;9.114;2022-12-10T15:34:55;1.90;99.90
1307;DHT22;646;48.696;9.114;2022-12-10T15:37:26;1.40;99.90
1307;DHT22;646;48.696;9.114;2022-12-10T15:39:57;1.40;99.90
1307;DHT22;646;48.696;9.114;2022-12-10T15:47:45;1.40;99.90
1307;DHT22;646;48.696;9.114;2022-12-10T15:50:10;1.20;99.90
1307;DHT22;646;48.696;9.114;2022-12-10T15:52:36;1.30;99.90
1307;DHT22;646;48.696;9.114;2022-12-10T15:55:02;0.80;99.90
1307;DHT22;646;48.696;9.114;2022-12-10T15:57:30;1.50;99.90
1307;DHT22;646;48.696;9.114;2022-12-10T15:59:58;1.20;99.90
1307;DHT22;646;48.696;9.114;2022-12-10T16:05:24;1.30;99.90
1307;DHT22;646;48.696;9.114;2022-12-10T16:07:52;1.30;99.90
1307;DHT22;646;48.696;9.114;2022-12-10T16:10:21;1.20;99.90
1307;DHT22;646;48.696;9.114;2022-12-10T16:12:49;1.50;99.90
1307;DHT22;646;48.696;9.114;2022-12-10T16:15:22;1.40;99.90
1307;DHT22;646;48.696;9.114;2022-12-10T16:17:50;1.30;99.90
1307;DHT22;646;48.696;9.114;2022-12-10T16:20:25;1.30;99.90
1307;DHT22;646;48.696;9.114;2022-12-10T16:22:52;1.20;99.90
1307;DHT22;646;48.696;9.114;2022-12-10T16:25:18;1.10;99.90
1307;DHT22;646;48.696;9.114;2022-12-10T16:27:44;1.30;99.90
1307;DHT22;646;48.696;9.114;2022-12-10T16:32:54;1.00;99.90
1307;DHT22;646;48.696;9.114;2022-12-10T16:35:20;1.30;99.90
1307;DHT22;646;48.696;9.114;2022-12-10T16:37:48;1.20;99.90
1307;DHT22;646;48.696;9.114;2022-12-10T16:40:21;1.10;99.90
1307;DHT22;646;48.696;9.114;2022-12-10T16:42:47;1.10;99.90
1307;DHT22;646;48.696;9.114;2022-12-10T16:45:24;1.00;99.90
1307;DHT22;646;48.696;9.114;2022-12-10T16:47:51;1.30;99.90
1307;DHT22;646;48.696;9.114;2022-12-10T16:50:21;0.70;99.90
1307;DHT22;646;48.696;9.114;2022-12-10T16:52:46;1.10;99.90
1307;DHT22;646;48.696;9.114;2022-12-10T16:55:15;1.20;99.90
1307;DHT22;646;48.696;9.114;2022-12-10T16:57:42;1.00;99.90
1307;DHT22;646;48.696;9.114;2022-12-10T17:00:10;1.20;99.90
1307;DHT22;646;48.696;9.114;2022-12-10T17:02:36;1.20;99.90
1307;DHT22;646;48.696;9.114;2022-12-10T17:05:02;1.20;99.90
1307;DHT22;646;48.696;9.114;2022-12-10T17:07:27;1.10;99.90
1307;DHT22;646;48.696;9.114;2022-12-10T17:09:53;0.90;99.90
1307;DHT22;646;48.696;9.114;2022-12-10T17:12:18;0.90;99.90
1307;DHT22;646;48.696;9.114;2022-12-10T17:14:44;0.80;99.90
1307;DHT22;646;48.696;9.114;2022-12-10T17:17:14;0.90;99.90
1307;DHT22;646;48.696;9.114;2022-12-10T17:19:40;0.70;99.90
1307;DHT22;646;48.696;9.114;2022-12-10T17:22:07;0.70;99.90
1307;DHT22;646;48.696;9.114;2022-12-10T17:24:34;0.70;99.90
1307;DHT22;646;48.696;9.114;2022-12-10T17:27:12;0.70;99.90
1307;DHT22;646;48.696;9.114;2022-12-10T17:29:40;0.90;99.90
1307;DHT22;646;48.696;9.114;2022-12-10T17:32:11;0.50;99.90
1307;DHT22;646;48.696;9.114;2022-12-10T17:34:37;0.70;99.90
1307;DHT22;646;48.696;9.114;2022-12-10T17:37:12;0.70;99.90
1307;DHT22;646;48.696;9.114;2022-12-10T17:39:38;0.90;99.90
1307;DHT22;646;48.696;9.114;2022-12-10T17:42:04;0.80;99.90
1307;DHT22;646;48.696;9.114;2022-12-10T17:44:29;0.80;99.90
1307;DHT22;646;48.696;9.114;2022-12-10T17:46:55;0.90;99.90
1307;DHT22;646;48.696;9.114;2022-12-10T17:49:20;0.80;99.90
1307;DHT22;646;48.696;9.114;2022-12-10T17:51:46;0.80;99.90
1307;DHT22;646;48.696;9.114;2022-12-10T17:54:12;0.60;99.90
1307;DHT22;646;48.696;9.114;2022-12-10T17:56:38;0.50;99.90
1307;DHT22;646;48.696;9.114;2022-12-10T17:59:04;0.50;99.90
1307;DHT22;646;48.696;9.114;2022-12-10T18:01:29;0.70;99.90
1307;DHT22;646;48.696;9.114;2022-12-10T18:03:56;0.70;99.90
1307;DHT22;646;48.696;9.114;2022-12-10T18:06:24;0.70;99.90
1307;DHT22;646;48.696;9.114;2022-12-10T18:08:52;0.60;99.90
1307;DHT22;646;48.696;9.114;2022-12-10T18:11:21;0.40;99.90
1307;DHT22;646;48.696;9.114;2022-12-10T18:13:47;0.40;99.90
1307;DHT22;646;48.696;9.114;2022-12-10T18:16:14;0.40;99.90
1307;DHT22;646;48.696;9.114;2022-12-10T18:18:40;0.60;99.90
1307;DHT22;646;48.696;9.114;2022-12-10T18:21:06;0.50;99.90
1307;DHT22;646;48.696;9.114;2022-12-10T18:23:33;0.50;99.90
1307;DHT22;646;48.696;9.114;2022-12-10T18:25:59;0.30;99.90
1307;DHT22;646;48.696;9.114;2022-12-10T18:30:53;0.40;99.90
1307;DHT22;646;48.696;9.114;2022-12-10T18:33:21;0.40;99.90
1307;DHT22;646;48.696;9.114;2022-12-10T18:35:46;0.50;99.90
1307;DHT22;646;48.696;9.114;2022-12-10T18:38:14;-0.10;99.90
1307;DHT22;646;48.696;9.114;2022-12-10T18:40:39;0.20;99.90